Time;durP1;ratioP1;P1;durP2;ratioP2;P2;SDS_P1;SDS_P2;PMS_P1;PMS_P2;Temp;Humidity;BMP_temperature;BMP_pressure;BME280_temperature;BME280_humidity;BME280_pressure;Samples;Min_cycle;Max_cycle;Signal;HPM_P1;HPM_P2
2022/03/28 00:02:19;;;;;;;13.98;8.48;;;24.00;29.30;;;;;;6159385;28;80428;-69
2022/03/28 00:05:20;;;;;;;15.27;8.63;;;24.00;29.10;;;;;;6159627;28;80293;-69
2022/03/28 00:08:20;;;;;;;12.60;7.55;;;24.00;29.80;;;;;;6135639;28;81335;-71
2022/03/28 00:11:21;;;;;;;17.10;8.32;;;24.00;29.60;;;;;;6143398;28;81212;-67
2022/03/28 00:14:21;;;;;;;15.02;7.47;;;24.00;29.50;;;;;;6158925;28;80628;-69
2022/03/28 00:17:22;;;;;;;13.55;7.80;;;24.00;29.60;;;;;;6150765;28;80468;-69
2022/03/28 00:20:23;;;;;;;11.90;7.25;;;24.00;29.40;;;;;;6146178;28;80746;-71
2022/03/28 00:23:24;;;;;;;12.25;6.97;;;24.00;29.50;;;;;;6144260;28;81724;-71
2022/03/28 00:26:24;;;;;;;14.38;7.53;;;23.90;29.60;;;;;;6158942;28;80519;-69
2022/03/28 00:29:25;;;;;;;15.45;8.50;;;23.90;29.60;;;;;;6159351;28;80336;-70
2022/03/28 00:32:27;;;;;;;17.17;7.35;;;23.90;29.40;;;;;;6158686;28;80477;-68
2022/03/28 00:35:27;;;;;;;14.40;8.52;;;23.90;29.30;;;;;;6153914;28;80533;-70
2022/03/28 00:38:28;;;;;;;15.27;7.75;;;24.00;29.40;;;;;;6148070;28;80441;-70
2022/03/28 00:41:28;;;;;;;15.93;8.23;;;23.90;29.40;;;;;;6159082;28;80364;-70
2022/03/28 00:44:29;;;;;;;16.63;8.35;;;23.90;29.50;;;;;;6138308;28;80368;-70
2022/03/28 00:47:30;;;;;;;15.93;8.05;;;23.90;29.50;;;;;;6137418;28;80367;-69
2022/03/28 00:50:31;;;;;;;13.77;8.30;;;24.00;29.50;;;;;;6157456;28;81023;-70
2022/03/28 00:53:32;;;;;;;14.98;7.63;;;23.90;29.40;;;;;;6146733;28;80548;-69
2022/03/28 00:56:33;;;;;;;15.18;8.10;;;23.90;29.40;;;;;;6134413;28;80563;-69
2022/03/28 00:59:34;;;;;;;15.98;9.02;;;23.90;29.30;;;;;;6135169;28;80406;-68
2022/03/28 01:02:34;;;;;;;14.63;8.25;;;23.90;29.40;;;;;;6134481;28;80418;-68
2022/03/28 01:05:35;;;;;;;13.02;7.65;;;23.90;29.30;;;;;;6134597;28;80406;-68
2022/03/28 01:08:35;;;;;;;13.88;7.38;;;23.90;29.50;;;;;;6140764;28;80266;-68
2022/03/28 01:11:36;;;;;;;15.52;8.73;;;23.90;29.30;;;;;;6133228;28;80536;-68
2022/03/28 01:14:37;;;;;;;14.27;7.57;;;23.90;29.30;;;;;;6141212;28;80591;-67
2022/03/28 01:20:57;;;;;;;14.05;7.50;;;23.80;29.10;;;;;;6151054;28;80359;-69
2022/03/28 01:23:57;;;;;;;13.63;7.60;;;23.80;29.10;;;;;;6138697;28;80496;-69
2022/03/28 01:26:58;;;;;;;15.65;8.63;;;23.80;29.10;;;;;;6138453;28;81402;-69
2022/03/28 01:29:58;;;;;;;15.27;8.13;;;23.80;29.10;;;;;;6134657;28;80868;-69
2022/03/28 01:32:59;;;;;;;14.60;7.57;;;23.80;29.10;;;;;;6149254;28;81499;-69
2022/03/28 01:35:59;;;;;;;12.77;7.57;;;23.80;29.00;;;;;;6158024;28;80367;-70
2022/03/28 01:39:00;;;;;;;14.27;7.95;;;23.80;29.10;;;;;;6158043;28;80620;-70
2022/03/28 01:42:00;;;;;;;13.65;7.63;;;23.70;29.10;;;;;;6157391;28;84309;-69
2022/03/28 01:45:01;;;;;;;13.82;7.65;;;23.80;29.10;;;;;;6159256;28;80441;-69
2022/03/28 01:48:01;;;;;;;13.52;6.93;;;23.80;29.00;;;;;;6156829;28;80086;-69
2022/03/28 01:51:02;;;;;;;16.38;8.23;;;23.80;29.00;;;;;;6161019;28;81200;-69
2022/03/28 01:54:02;;;;;;;13.38;7.25;;;23.80;29.00;;;;;;6139671;28;80498;-69
2022/03/28 01:57:03;;;;;;;14.20;7.50;;;23.70;29.00;;;;;;6161938;28;80388;-69
2022/03/28 02:00:04;;;;;;;13.52;7.47;;;23.70;29.00;;;;;;6162164;28;86951;-69
2022/03/28 02:03:09;;;;;;;13.00;7.45;;;23.80;29.10;;;;;;6159024;28;80368;-69
2022/03/28 02:06:10;;;;;;;14.15;7.03;;;23.80;29.20;;;;;;6161974;28;80481;-69
2022/03/28 02:09:12;;;;;;;14.32;8.23;;;23.80;29.90;;;;;;6142927;28;80819;-69
2022/03/28 02:12:13;;;;;;;14.77;8.05;;;23.70;29.40;;;;;;6137001;28;80482;-69
2022/03/28 02:15:14;;;;;;;14.07;7.25;;;23.80;29.50;;;;;;6144259;28;81701;-68
2022/03/28 02:18:14;;;;;;;13.90;6.97;;;23.80;29.30;;;;;;6147972;28;80476;-69
2022/03/28 02:21:15;;;;;;;11.63;6.68;;;23.80;29.30;;;;;;6149701;28;80496;-69
2022/03/28 02:24:16;;;;;;;12.25;6.63;;;23.80;29.40;;;;;;6161294;28;80509;-69
2022/03/28 02:27:16;;;;;;;11.00;6.88;;;23.80;29.40;;;;;;6148961;28;80357;-70
2022/03/28 02:30:17;;;;;;;12.80;7.13;;;23.80;29.70;;;;;;6137002;28;80389;-70
2022/03/28 02:33:17;;;;;;;12.93;7.60;;;23.80;29.60;;;;;;6156732;28;80705;-69
2022/03/28 02:36:18;;;;;;;13.20;7.25;;;23.80;29.80;;;;;;6161294;28;80689;-69
2022/03/28 02:39:18;;;;;;;11.02;6.82;;;23.70;29.50;;;;;;6143736;28;80595;-69
2022/03/28 02:42:22;;;;;;;10.98;7.05;;;23.80;29.70;;;;;;6137517;28;80475;-69
2022/03/28 02:45:22;;;;;;;11.65;7.43;;;23.70;29.80;;;;;;6136805;28;80585;-69
2022/03/28 02:48:23;;;;;;;11.95;7.00;;;23.80;29.90;;;;;;6153305;28;82987;-69
2022/03/28 02:51:24;;;;;;;14.75;7.10;;;23.70;30.00;;;;;;6154168;28;86981;-68
2022/03/28 02:54:24;;;;;;;12.70;6.85;;;23.70;29.90;;;;;;6156195;28;80341;-69
2022/03/28 02:57:25;;;;;;;9.98;6.35;;;23.70;29.90;;;;;;6155346;28;80790;-69
2022/03/28 03:00:25;;;;;;;13.82;7.63;;;23.70;29.50;;;;;;6137311;28;80714;-69
2022/03/28 03:03:26;;;;;;;15.70;7.60;;;23.70;29.60;;;;;;6159591;28;80575;-70
2022/03/28 03:06:26;;;;;;;11.48;6.93;;;23.70;29.40;;;;;;6151606;28;80714;-69
2022/03/28 03:09:27;;;;;;;12.15;6.85;;;23.70;29.20;;;;;;6136242;28;80470;-68
2022/03/28 03:12:27;;;;;;;13.70;7.15;;;23.70;29.10;;;;;;6138219;28;80516;-68
2022/03/28 03:15:28;;;;;;;11.25;7.20;;;23.70;28.80;;;;;;6150016;28;81227;-69
2022/03/28 03:18:28;;;;;;;13.98;7.63;;;23.70;28.80;;;;;;6159909;28;80453;-69
2022/03/28 03:21:29;;;;;;;14.98;7.53;;;23.80;29.00;;;;;;6160144;28;80222;-70
2022/03/28 03:24:30;;;;;;;10.43;6.40;;;23.80;28.90;;;;;;6160300;28;80512;-69
2022/03/28 03:27:30;;;;;;;12.75;6.93;;;23.90;28.90;;;;;;6160319;28;80855;-70
2022/03/28 03:30:31;;;;;;;14.90;8.15;;;23.90;28.80;;;;;;6156703;28;80425;-67
2022/03/28 03:33:31;;;;;;;11.10;6.90;;;24.00;28.80;;;;;;6146895;28;80892;-69
2022/03/28 03:36:32;;;;;;;12.48;7.47;;;24.00;28.70;;;;;;6159979;28;81351;-69
2022/03/28 03:39:32;;;;;;;11.55;6.78;;;24.00;28.70;;;;;;6145489;28;80602;-69
2022/03/28 03:42:33;;;;;;;13.70;7.57;;;24.10;28.80;;;;;;6146997;28;80282;-69
2022/03/28 03:45:33;;;;;;;11.85;7.05;;;24.10;28.80;;;;;;6159593;28;80310;-69
2022/03/28 03:48:34;;;;;;;15.32;7.57;;;24.10;28.80;;;;;;6159614;28;81499;-68
2022/03/28 03:51:34;;;;;;;14.48;7.22;;;24.10;28.80;;;;;;6160280;28;81332;-69
2022/03/28 03:54:35;;;;;;;13.07;7.10;;;24.20;28.80;;;;;;6150232;28;80860;-68
2022/03/28 03:57:36;;;;;;;14.15;7.32;;;24.20;28.80;;;;;;6152075;28;81544;-68
2022/03/28 04:00:36;;;;;;;13.07;7.22;;;24.20;28.70;;;;;;6155876;28;80472;-69
2022/03/28 04:03:37;;;;;;;11.68;6.70;;;24.20;28.90;;;;;;6159272;28;80408;-68
2022/03/28 04:06:37;;;;;;;14.32;7.53;;;24.20;28.70;;;;;;6153603;28;80422;-69
2022/03/28 04:09:38;;;;;;;12.98;6.97;;;24.30;28.70;;;;;;6157560;28;80488;-68
2022/03/28 04:12:39;;;;;;;13.98;6.65;;;24.30;28.80;;;;;;6151933;28;81608;-68
2022/03/28 04:15:39;;;;;;;13.70;7.03;;;24.30;28.80;;;;;;6138631;28;80751;-68
2022/03/28 04:18:40;;;;;;;13.30;7.15;;;24.30;28.90;;;;;;6142478;28;80695;-69
2022/03/28 04:21:41;;;;;;;14.80;7.88;;;24.30;28.90;;;;;;6159148;28;80330;-68
2022/03/28 04:24:42;;;;;;;13.65;7.95;;;24.30;28.90;;;;;;6151996;28;80839;-67
2022/03/28 04:27:42;;;;;;;14.20;7.20;;;24.30;28.90;;;;;;6138441;28;80477;-68
2022/03/28 04:30:43;;;;;;;12.30;6.72;;;24.30;28.90;;;;;;6156088;28;81700;-69
2022/03/28 04:33:43;;;;;;;14.02;7.90;;;24.30;28.90;;;;;;6159162;28;80882;-69
2022/03/28 04:36:44;;;;;;;11.57;6.78;;;24.30;28.90;;;;;;6139134;28;80887;-67
2022/03/28 04:39:44;;;;;;;11.45;7.25;;;24.30;28.90;;;;;;6159548;28;80529;-65
2022/03/28 04:42:45;;;;;;;12.75;7.22;;;24.30;28.80;;;;;;6154269;28;81616;-67
2022/03/28 04:45:46;;;;;;;13.85;7.97;;;24.30;29.30;;;;;;6155577;28;83091;-64
2022/03/28 04:48:47;;;;;;;16.05;8.23;;;24.30;28.90;;;;;;6156073;28;80272;-65
2022/03/28 04:51:48;;;;;;;12.38;7.65;;;24.30;29.40;;;;;;6156791;28;80443;-64
2022/03/28 04:54:48;;;;;;;16.55;8.63;;;24.30;29.80;;;;;;6158852;28;80693;-66
2022/03/28 04:57:49;;;;;;;13.38;7.07;;;24.30;30.20;;;;;;6139592;28;81828;-65
2022/03/28 05:00:51;;;;;;;12.73;6.55;;;24.30;30.30;;;;;;6142293;28;81309;-66
2022/03/28 05:03:52;;;;;;;15.93;7.43;;;24.30;31.10;;;;;;6158803;28;80565;-66
2022/03/28 05:06:52;;;;;;;14.85;6.68;;;24.40;31.10;;;;;;6159210;28;80435;-65
2022/03/28 05:09:53;;;;;;;17.15;8.65;;;24.30;30.80;;;;;;6135688;28;80477;-66
2022/03/28 05:12:54;;;;;;;15.23;8.07;;;24.40;31.20;;;;;;6134338;28;84508;-66
2022/03/28 05:15:54;;;;;;;18.35;8.23;;;24.40;30.60;;;;;;6138748;28;83343;-66
2022/03/28 05:18:55;;;;;;;17.15;7.57;;;24.40;31.20;;;;;;6152661;28;80828;-67
2022/03/28 05:21:55;;;;;;;15.80;8.73;;;24.40;31.30;;;;;;6162598;28;80192;-69
2022/03/28 05:24:56;;;;;;;19.20;9.73;;;24.40;31.50;;;;;;6162175;28;80679;-62
2022/03/28 05:27:57;;;;;;;19.05;9.48;;;24.30;31.50;;;;;;6161798;28;80850;-65
2022/03/28 05:30:58;;;;;;;19.20;10.07;;;24.30;31.50;;;;;;6162028;28;80339;-66
2022/03/28 05:33:59;;;;;;;21.33;10.68;;;24.40;31.70;;;;;;6153766;28;84560;-71
2022/03/28 05:36:59;;;;;;;18.33;10.20;;;24.40;31.50;;;;;;6158208;28;83073;-74
2022/03/28 05:40:00;;;;;;;17.17;10.18;;;24.40;31.40;;;;;;6141011;28;83460;-66
2022/03/28 05:43:00;;;;;;;18.83;10.52;;;24.40;31.10;;;;;;6139189;28;83429;-64
2022/03/28 05:46:01;;;;;;;22.63;10.15;;;24.40;31.40;;;;;;6142515;28;84241;-65
2022/03/28 05:49:01;;;;;;;21.50;11.30;;;24.40;31.50;;;;;;6133073;28;85700;-66
2022/03/28 05:52:02;;;;;;;20.65;10.75;;;24.40;31.20;;;;;;6134407;28;83834;-67
2022/03/28 05:55:02;;;;;;;21.77;11.32;;;24.40;31.20;;;;;;6147826;28;83411;-66
2022/03/28 05:58:03;;;;;;;24.33;11.70;;;24.30;30.20;;;;;;6150144;28;83005;-66
2022/03/28 06:01:03;;;;;;;22.23;12.60;;;24.10;29.60;;;;;;6133422;28;83662;-67
2022/03/28 06:04:07;;;;;;;26.73;12.48;;;23.90;29.60;;;;;;6145293;28;83055;-66
2022/03/28 06:07:07;;;;;;;30.08;14.68;;;23.80;29.20;;;;;;6157425;28;83327;-67
2022/03/28 06:10:08;;;;;;;28.85;15.05;;;23.80;29.20;;;;;;6157636;28;83118;-67
2022/03/28 06:13:08;;;;;;;46.90;16.52;;;23.70;29.10;;;;;;6156331;28;84947;-67
2022/03/28 06:16:09;;;;;;;30.52;15.30;;;23.60;28.80;;;;;;6159070;28;83465;-70
2022/03/28 06:19:10;;;;;;;30.15;14.77;;;23.60;28.90;;;;;;6155446;28;83782;-73
2022/03/28 06:22:10;;;;;;;32.75;16.10;;;23.60;28.80;;;;;;6148312;28;83605;-82
2022/03/28 06:25:11;;;;;;;30.85;15.90;;;23.50;28.70;;;;;;6152373;28;83301;-77
2022/03/28 06:28:12;;;;;;;30.75;16.02;;;23.50;29.20;;;;;;6153992;28;83101;-71
2022/03/28 06:31:13;;;;;;;31.48;16.08;;;23.50;28.30;;;;;;6143300;28;83316;-69
2022/03/28 06:34:13;;;;;;;32.45;16.45;;;23.50;28.40;;;;;;6152384;28;83538;-70
2022/03/28 06:37:14;;;;;;;31.30;15.85;;;23.50;28.50;;;;;;6155779;28;83385;-69
2022/03/28 06:40:14;;;;;;;32.00;16.02;;;23.40;28.40;;;;;;6154471;28;84680;-68
2022/03/28 06:43:15;;;;;;;35.85;16.90;;;23.40;27.80;;;;;;6155645;28;84240;-67
2022/03/28 06:46:15;;;;;;;32.30;16.50;;;23.40;28.20;;;;;;6152558;28;83949;-69
2022/03/28 06:49:16;;;;;;;43.40;17.38;;;23.40;28.20;;;;;;6158227;28;83184;-70
2022/03/28 06:52:17;;;;;;;30.95;15.98;;;23.30;28.10;;;;;;6148042;28;84079;-74
2022/03/28 06:55:17;;;;;;;34.08;17.50;;;23.30;28.40;;;;;;6156050;28;83036;-72
2022/03/28 06:58:18;;;;;;;35.40;17.27;;;23.20;28.40;;;;;;6154020;28;82951;-72
2022/03/28 07:01:18;;;;;;;36.75;17.13;;;23.20;28.40;;;;;;6157078;28;84425;-72
2022/03/28 07:04:20;;;;;;;35.58;16.67;;;23.20;28.50;;;;;;6156396;28;84515;-70
2022/03/28 07:07:21;;;;;;;36.28;16.85;;;23.30;28.60;;;;;;6151747;28;83187;-70
2022/03/28 07:10:21;;;;;;;31.60;15.77;;;23.30;28.60;;;;;;6143871;28;83095;-67
2022/03/28 07:13:22;;;;;;;31.23;14.23;;;23.40;28.60;;;;;;6144604;28;84104;-74
2022/03/28 07:16:23;;;;;;;30.67;14.00;;;23.40;28.60;;;;;;6147067;28;84358;-77
2022/03/28 07:19:23;;;;;;;32.42;14.45;;;23.40;28.50;;;;;;6149993;28;82891;-65
2022/03/28 07:22:24;;;;;;;33.88;14.77;;;23.40;28.40;;;;;;6151004;28;84485;-80
2022/03/28 07:25:24;;;;;;;28.77;14.35;;;23.40;28.40;;;;;;6160911;28;83166;-81
2022/03/28 07:28:25;;;;;;;30.80;14.25;;;23.40;28.40;;;;;;6161219;28;83124;-82
2022/03/28 07:31:25;;;;;;;31.25;14.60;;;23.40;28.40;;;;;;6153316;28;82941;-77
2022/03/28 07:34:34;;;;;;;26.02;12.30;;;23.40;28.30;;;;;;6155171;28;83849;-77
2022/03/28 07:37:35;;;;;;;24.42;11.88;;;23.40;28.40;;;;;;6145260;28;83268;-65
2022/03/28 07:40:36;;;;;;;23.33;12.30;;;23.40;28.20;;;;;;6134935;28;82927;-74
2022/03/28 07:43:36;;;;;;;22.48;11.40;;;23.40;28.20;;;;;;6157806;28;83304;-73
2022/03/28 07:46:37;;;;;;;27.70;16.15;;;23.40;28.60;;;;;;6156380;28;82920;-73
2022/03/28 07:49:38;;;;;;;28.95;16.15;;;23.40;28.40;;;;;;6158802;28;83504;-74
2022/03/28 07:52:38;;;;;;;29.38;15.15;;;23.40;28.10;;;;;;6169590;28;82817;-72
2022/03/28 07:55:39;;;;;;;31.95;20.77;;;23.50;28.40;;;;;;6150121;28;89667;-76
2022/03/28 07:58:40;;;;;;;34.20;20.90;;;23.50;28.40;;;;;;6153552;28;83260;-77
2022/03/28 08:01:41;;;;;;;46.58;30.05;;;23.50;28.30;;;;;;6157374;28;83516;-73
2022/03/28 08:04:43;;;;;;;51.35;32.50;;;23.50;28.20;;;;;;6148274;28;83165;-74
2022/03/28 08:07:43;;;;;;;48.55;31.75;;;23.50;27.80;;;;;;6155239;28;83001;-74
2022/03/28 08:10:44;;;;;;;31.90;18.27;;;23.60;28.00;;;;;;6157871;28;83389;-74
2022/03/28 08:13:45;;;;;;;29.27;13.55;;;23.60;27.80;;;;;;6141658;28;83311;-73
2022/03/28 08:16:45;;;;;;;19.80;11.02;;;23.60;27.20;;;;;;6157186;28;83193;-75
2022/03/28 08:19:46;;;;;;;19.33;9.70;;;23.50;27.20;;;;;;6136212;28;83121;-73
2022/03/28 08:22:49;;;;;;;17.88;9.23;;;23.50;27.20;;;;;;6155667;28;83370;-67
2022/03/28 08:25:50;;;;;;;16.75;8.70;;;23.50;27.10;;;;;;6157783;28;80632;-72
2022/03/28 08:28:50;;;;;;;16.45;8.73;;;23.40;27.00;;;;;;6158437;28;80369;-71
2022/03/28 08:31:51;;;;;;;23.85;9.23;;;23.50;27.00;;;;;;6155485;28;80875;-72
2022/03/28 08:34:51;;;;;;;21.08;8.30;;;23.30;26.90;;;;;;6159122;28;80983;-73
2022/03/28 08:37:52;;;;;;;18.05;8.40;;;23.40;27.00;;;;;;6155635;28;80638;-71
2022/03/28 08:40:53;;;;;;;16.55;8.18;;;23.40;26.90;;;;;;6156699;28;80736;-72
2022/03/28 08:43:53;;;;;;;14.95;8.25;;;23.50;27.10;;;;;;6152583;28;80493;-73
2022/03/28 08:46:54;;;;;;;15.68;7.30;;;23.50;26.90;;;;;;6152523;28;81145;-64
2022/03/28 08:49:54;;;;;;;17.92;8.50;;;23.50;27.10;;;;;;6159422;28;80737;-72
2022/03/28 08:52:55;;;;;;;17.23;8.13;;;23.60;27.10;;;;;;6152822;28;80653;-74
2022/03/28 08:55:55;;;;;;;17.42;8.52;;;23.50;27.00;;;;;;6139241;28;81384;-74
2022/03/28 08:58:56;;;;;;;14.73;8.98;;;23.50;27.00;;;;;;6157577;28;80604;-75
2022/03/28 09:01:56;;;;;;;19.42;9.25;;;23.30;26.90;;;;;;6156928;28;80386;-72
2022/03/28 09:04:57;;;;;;;16.48;8.05;;;23.10;27.20;;;;;;6162686;28;80530;-74
2022/03/28 09:07:58;;;;;;;18.77;9.05;;;23.10;27.20;;;;;;6152741;28;80903;-76
2022/03/28 09:10:58;;;;;;;18.67;8.52;;;22.90;27.20;;;;;;6140773;28;80843;-75
2022/03/28 09:13:59;;;;;;;16.00;7.97;;;23.00;27.50;;;;;;6163082;28;80303;-75
2022/03/28 09:16:59;;;;;;;11.95;7.63;;;23.30;27.60;;;;;;6140897;28;80688;-76
2022/03/28 09:20:02;;;;;;;11.75;7.43;;;23.40;27.50;;;;;;6140038;28;80925;-76
2022/03/28 09:23:03;;;;;;;13.10;7.28;;;23.50;27.60;;;;;;6140079;28;80384;-75
2022/03/28 09:26:04;;;;;;;17.20;7.68;;;23.60;27.50;;;;;;6162871;28;80385;-75
2022/03/28 09:29:06;;;;;;;17.10;8.63;;;23.70;27.70;;;;;;6153158;28;84994;-75
2022/03/28 09:32:06;;;;;;;17.92;7.97;;;23.60;27.60;;;;;;6145821;28;81686;-76
2022/03/28 09:35:07;;;;;;;17.50;8.23;;;23.70;27.80;;;;;;6161618;28;81009;-73
2022/03/28 09:38:08;;;;;;;13.52;8.27;;;23.60;27.90;;;;;;6146466;28;80467;-74
2022/03/28 09:41:08;;;;;;;19.52;8.32;;;23.60;28.00;;;;;;6164024;28;80444;-74
2022/03/28 09:44:09;;;;;;;23.13;8.05;;;23.60;28.20;;;;;;6150427;28;81711;-72
2022/03/28 09:47:10;;;;;;;13.98;8.50;;;23.80;28.20;;;;;;6164214;28;80031;-66
2022/03/28 09:50:10;;;;;;;11.60;7.30;;;23.80;28.20;;;;;;6161351;28;80306;-72
2022/03/28 09:53:11;;;;;;;12.93;7.90;;;23.90;28.30;;;;;;6163663;28;80878;-73
2022/03/28 09:56:11;;;;;;;14.98;8.63;;;23.90;28.20;;;;;;6163623;28;80380;-68
2022/03/28 09:59:19;;;;;;;17.63;9.00;;;24.00;28.30;;;;;;6158469;28;80777;-73
2022/03/28 10:02:19;;;;;;;20.65;9.55;;;24.00;28.30;;;;;;6157804;28;80834;-72
2022/03/28 10:05:20;;;;;;;17.50;9.48;;;24.00;28.30;;;;;;6154707;28;81727;-71
2022/03/28 10:08:21;;;;;;;15.00;9.13;;;24.00;28.40;;;;;;6161939;28;80552;-68
2022/03/28 10:11:21;;;;;;;16.40;8.95;;;24.00;28.30;;;;;;6161363;28;80291;-70
2022/03/28 10:14:22;;;;;;;15.70;9.57;;;24.10;28.40;;;;;;6157366;28;80894;-70
2022/03/28 10:17:24;;;;;;;15.77;7.93;;;24.20;28.50;;;;;;6138454;28;80317;-70
2022/03/28 10:20:25;;;;;;;15.90;8.82;;;24.30;28.50;;;;;;6156329;28;80494;-70
2022/03/28 10:23:25;;;;;;;13.57;8.38;;;24.30;28.50;;;;;;6158521;28;80902;-71
2022/03/28 10:26:26;;;;;;;16.00;8.23;;;24.40;28.50;;;;;;6141142;28;80499;-71
2022/03/28 10:29:26;;;;;;;13.70;7.63;;;24.40;28.60;;;;;;6153493;28;80420;-73
2022/03/28 10:32:27;;;;;;;11.65;7.35;;;24.50;28.60;;;;;;6140123;28;80944;-71
2022/03/28 10:35:27;;;;;;;13.90;7.50;;;24.50;28.50;;;;;;6161902;28;81635;-71
2022/03/28 10:38:28;;;;;;;18.10;8.25;;;24.60;28.50;;;;;;6162369;28;80103;-73
2022/03/28 10:41:29;;;;;;;11.90;6.10;;;24.60;28.40;;;;;;6159403;28;81777;-72
2022/03/28 10:44:29;;;;;;;15.23;6.97;;;24.60;28.40;;;;;;6159522;28;80847;-75
2022/03/28 10:47:30;;;;;;;18.75;7.32;;;24.70;28.40;;;;;;6163144;28;80043;-76
2022/03/28 10:50:30;;;;;;;12.65;6.28;;;24.70;28.40;;;;;;6160676;28;80560;-76
2022/03/28 10:53:33;;;;;;;12.48;6.80;;;24.70;28.30;;;;;;6161882;28;81100;-74
2022/03/28 10:56:34;;;;;;;13.95;6.97;;;24.80;28.40;;;;;;6155582;28;80342;-73
2022/03/28 10:59:34;;;;;;;13.60;6.38;;;24.70;28.20;;;;;;6158447;28;80412;-72
2022/03/28 11:02:35;;;;;;;10.05;5.80;;;24.80;28.30;;;;;;6160081;28;80618;-72
2022/03/28 11:05:35;;;;;;;8.40;5.72;;;24.80;28.20;;;;;;6144012;28;80392;-79
2022/03/28 11:08:36;;;;;;;9.10;5.60;;;24.80;28.20;;;;;;6155609;28;80780;-76
2022/03/28 11:11:37;;;;;;;8.57;5.65;;;24.80;28.00;;;;;;6162710;28;80335;-76
2022/03/28 11:14:37;;;;;;;10.25;5.32;;;24.80;28.00;;;;;;6148291;28;80435;-75
2022/03/28 11:17:38;;;;;;;8.48;5.95;;;24.90;28.20;;;;;;6147753;28;81615;-74
2022/03/28 11:20:38;;;;;;;8.70;5.07;;;24.90;28.30;;;;;;6151634;28;80222;-74
2022/03/28 11:23:42;;;;;;;8.93;4.57;;;24.90;28.30;;;;;;6151101;28;80316;-75
2022/03/28 11:26:43;;;;;;;6.57;4.78;;;24.90;28.30;;;;;;6154833;28;80438;-75
2022/03/28 11:29:44;;;;;;;7.32;4.60;;;24.90;28.30;;;;;;6160797;28;82746;-72
2022/03/28 11:32:45;;;;;;;7.60;4.93;;;24.90;27.80;;;;;;6159044;28;80533;-74
2022/03/28 11:35:45;;;;;;;8.73;5.38;;;25.00;27.90;;;;;;6153723;28;81733;-72
2022/03/28 11:38:46;;;;;;;7.65;5.18;;;25.00;27.90;;;;;;6156442;28;80437;-73
2022/03/28 11:41:46;;;;;;;6.47;4.55;;;25.00;27.80;;;;;;6152899;28;82218;-74
2022/03/28 11:44:47;;;;;;;7.45;4.57;;;25.00;27.50;;;;;;6161871;28;80525;-73
2022/03/28 11:47:47;;;;;;;10.25;4.60;;;25.00;27.60;;;;;;6160194;28;80484;-73
2022/03/28 11:50:48;;;;;;;8.85;4.47;;;25.10;27.70;;;;;;6152477;28;80419;-74
2022/03/28 11:53:48;;;;;;;7.20;4.32;;;25.00;27.60;;;;;;6147752;28;80475;-73
2022/03/28 12:00:28;;;;;;;5.70;4.18;;;25.10;28.20;;;;;;6155594;28;80257;-75
2022/03/28 12:03:28;;;;;;;7.63;4.80;;;25.10;28.00;;;;;;6157889;28;81514;-77
2022/03/28 12:06:29;;;;;;;6.53;4.47;;;25.10;28.00;;;;;;6145828;28;82873;-76
2022/03/28 12:09:29;;;;;;;5.72;4.15;;;25.10;28.00;;;;;;6156755;28;80320;-74
2022/03/28 12:12:30;;;;;;;6.25;4.03;;;25.10;28.00;;;;;;6138827;28;80505;-73
2022/03/28 12:15:30;;;;;;;8.70;4.05;;;25.10;28.20;;;;;;6159752;28;80244;-75
2022/03/28 12:18:31;;;;;;;4.93;3.78;;;25.10;28.30;;;;;;6158159;28;80620;-71
2022/03/28 12:21:34;;;;;;;7.05;3.60;;;25.10;28.30;;;;;;6158144;28;80360;-71
2022/03/28 12:24:34;;;;;;;7.65;4.13;;;25.10;28.40;;;;;;6139435;28;81388;-72
2022/03/28 12:27:35;;;;;;;10.82;5.97;;;25.20;28.50;;;;;;6151804;28;80673;-73
2022/03/28 12:30:35;;;;;;;14.02;7.45;;;25.10;28.30;;;;;;6151216;28;80219;-72
2022/03/28 12:33:38;;;;;;;13.50;7.95;;;25.10;28.30;;;;;;6155011;28;80304;-72
2022/03/28 12:36:39;;;;;;;16.75;9.40;;;25.20;28.50;;;;;;6160271;28;80733;-71
2022/03/28 12:39:39;;;;;;;22.13;10.70;;;25.20;28.60;;;;;;6142590;28;80980;-71
2022/03/28 12:42:39;;;;;;;22.00;11.55;;;25.20;28.60;;;;;;6132999;28;83252;-67
2022/03/28 12:45:40;;;;;;;20.83;10.40;;;25.10;28.60;;;;;;6147216;28;84138;-72
2022/03/28 12:48:41;;;;;;;17.45;9.07;;;25.20;28.70;;;;;;6153938;28;82852;-72
2022/03/28 12:51:41;;;;;;;18.85;8.35;;;25.20;28.60;;;;;;6159616;28;82922;-70
2022/03/28 12:54:42;;;;;;;9.82;6.80;;;25.20;28.60;;;;;;6156886;28;80497;-69
2022/03/28 12:57:43;;;;;;;10.90;6.65;;;25.20;28.70;;;;;;6154717;28;80646;-70
2022/03/28 13:00:43;;;;;;;13.95;7.18;;;25.20;28.60;;;;;;6157525;28;80935;-74
2022/03/28 13:03:44;;;;;;;11.82;5.85;;;25.20;28.80;;;;;;6151320;28;80394;-71
2022/03/28 13:06:45;;;;;;;7.90;5.53;;;25.20;28.60;;;;;;6152769;28;81637;-71
2022/03/28 13:09:45;;;;;;;12.07;6.05;;;25.10;28.80;;;;;;6152666;28;80373;-71
2022/03/28 13:12:47;;;;;;;9.45;6.00;;;25.20;28.90;;;;;;6152824;28;80511;-70
2022/03/28 13:15:48;;;;;;;10.73;5.20;;;25.20;29.10;;;;;;6153907;28;81438;-71
2022/03/28 13:18:48;;;;;;;7.07;5.20;;;25.20;29.00;;;;;;6154141;28;80209;-72
2022/03/28 13:21:49;;;;;;;10.80;4.82;;;25.30;29.10;;;;;;6150442;28;80219;-71
2022/03/28 13:24:49;;;;;;;5.88;4.20;;;25.20;29.00;;;;;;6138612;28;80358;-71
2022/03/28 13:28:02;;;;;;;7.80;4.03;;;25.20;29.00;;;;;;6142633;28;80961;-72
2022/03/28 13:31:05;;;;;;;7.70;4.00;;;25.20;29.50;;;;;;6154357;28;80394;-69
2022/03/28 13:34:05;;;;;;;12.60;3.60;;;25.30;29.10;;;;;;6158638;28;80539;-70
2022/03/28 13:37:06;;;;;;;7.53;3.78;;;25.30;28.90;;;;;;6139777;28;80533;-65
2022/03/28 13:40:07;;;;;;;7.72;4.28;;;25.30;29.10;;;;;;6144259;28;80393;-64
2022/03/28 13:43:08;;;;;;;7.70;4.47;;;25.30;29.50;;;;;;6143613;28;80574;-64
2022/03/28 13:46:12;;;;;;;122.40;56.33;;;25.30;29.70;;;;;;6158465;28;80550;-65
2022/03/28 13:49:13;;;;;;;74.72;32.97;;;25.30;29.70;;;;;;6142067;28;83141;-64
2022/03/28 13:52:13;;;;;;;102.50;46.90;;;25.30;29.40;;;;;;6143971;28;83288;-64
2022/03/28 13:55:14;;;;;;;98.03;42.83;;;25.40;29.40;;;;;;6159138;28;83495;-62
2022/03/28 13:58:14;;;;;;;85.68;39.17;;;25.40;29.20;;;;;;6147750;28;83241;-63
2022/03/28 14:01:15;;;;;;;70.38;32.88;;;25.40;29.30;;;;;;6148284;28;83167;-65
2022/03/28 14:04:16;;;;;;;60.75;28.80;;;25.40;29.50;;;;;;6142879;28;83583;-62
2022/03/28 14:07:17;;;;;;;38.55;18.65;;;25.40;29.40;;;;;;6141914;28;83270;-64
2022/03/28 14:10:17;;;;;;;41.83;17.63;;;25.40;29.30;;;;;;6142197;28;82877;-63
2022/03/28 14:13:18;;;;;;;29.27;14.32;;;25.40;29.10;;;;;;6154630;28;82984;-65
2022/03/28 14:16:22;;;;;;;23.85;11.43;;;25.40;28.90;;;;;;6152220;28;82929;-64
2022/03/28 14:19:23;;;;;;;22.10;11.75;;;25.30;28.70;;;;;;6157752;28;83218;-64
2022/03/28 14:22:24;;;;;;;22.27;9.20;;;25.30;28.80;;;;;;6144541;28;82871;-64
2022/03/28 14:25:26;;;;;;;21.75;9.02;;;25.30;28.80;;;;;;6138343;28;81845;-63
2022/03/28 14:28:27;;;;;;;13.05;6.47;;;25.40;28.90;;;;;;6148804;28;80376;-63
2022/03/28 14:31:27;;;;;;;12.70;6.28;;;25.30;28.90;;;;;;6155270;28;81028;-63
2022/03/28 14:34:28;;;;;;;13.73;6.28;;;25.30;29.00;;;;;;6150568;28;80571;-64
2022/03/28 14:37:29;;;;;;;14.52;6.03;;;25.30;28.90;;;;;;6156157;28;80548;-67
2022/03/28 14:40:29;;;;;;;11.00;5.35;;;25.30;28.90;;;;;;6154960;28;85027;-62
2022/03/28 14:43:30;;;;;;;8.95;4.85;;;25.30;29.00;;;;;;6152102;28;80719;-63
2022/03/28 14:49:49;;;;;;;9.95;4.28;;;25.30;28.90;;;;;;6149621;28;81486;-63
2022/03/28 14:52:50;;;;;;;6.18;3.95;;;25.30;28.70;;;;;;6153689;28;80415;-62
2022/03/28 14:55:50;;;;;;;8.73;4.70;;;25.30;28.90;;;;;;6161502;28;80431;-62
2022/03/28 14:58:51;;;;;;;6.15;3.85;;;25.30;28.90;;;;;;6150409;28;81112;-62
2022/03/28 15:01:51;;;;;;;10.77;3.78;;;25.30;28.80;;;;;;6160699;28;81730;-62
2022/03/28 15:04:52;;;;;;;8.00;3.67;;;25.20;28.80;;;;;;6158300;28;80557;-63
2022/03/28 15:07:53;;;;;;;13.25;4.07;;;25.20;28.90;;;;;;6152985;28;81152;-64
2022/03/28 15:10:53;;;;;;;5.28;3.03;;;25.20;29.10;;;;;;6158827;28;80559;-64
2022/03/28 15:13:54;;;;;;;5.03;3.10;;;25.20;29.10;;;;;;6148519;28;83298;-63
2022/03/28 15:16:54;;;;;;;5.38;3.35;;;25.20;28.70;;;;;;6154747;28;81586;-63
2022/03/28 15:19:55;;;;;;;10.68;3.65;;;25.20;28.70;;;;;;6145941;28;80480;-63
2022/03/28 15:22:55;;;;;;;5.80;3.35;;;25.20;28.90;;;;;;6147108;28;80537;-64
2022/03/28 15:25:56;;;;;;;5.18;3.30;;;25.20;28.90;;;;;;6161714;28;80617;-64
2022/03/28 15:28:57;;;;;;;7.40;3.00;;;25.20;29.20;;;;;;6147714;28;81073;-63
2022/03/28 15:32:00;;;;;;;6.70;2.83;;;25.10;29.20;;;;;;6160968;28;80175;-63
2022/03/28 15:35:00;;;;;;;5.75;3.22;;;25.10;29.50;;;;;;6158658;28;80829;-63
2022/03/28 15:38:01;;;;;;;8.65;3.72;;;25.10;29.00;;;;;;6161215;28;81262;-63